createdAt,value
2022-10-05T00:00:20.765Z,7.73
2022-10-05T00:02:49.720Z,6.87
2022-10-05T00:05:30.389Z,7.40
2022-10-05T00:08:06.238Z,7.67
2022-10-05T00:10:34.759Z,7.23
2022-10-05T00:13:07.321Z,7.57
2022-10-05T00:15:37.387Z,6.70
2022-10-05T00:18:13.970Z,6.67
2022-10-05T00:20:43.611Z,7.90
2022-10-05T00:23:18.934Z,7.50
2022-10-05T00:25:47.702Z,6.70
2022-10-05T00:28:27.675Z,7.57
2022-10-05T00:30:57.244Z,8.17
2022-10-05T00:33:25.929Z,7.67
2022-10-05T00:35:56.001Z,7.40
2022-10-05T00:38:24.818Z,6.90
2022-10-05T00:41:05.721Z,6.50
2022-10-05T00:44:07.011Z,6.77
2022-10-05T00:46:49.605Z,8.03
2022-10-05T00:49:43.712Z,8.20
2022-10-05T00:52:22.167Z,7.77
2022-10-05T00:54:59.726Z,8.13
2022-10-05T00:57:38.621Z,7.60
2022-10-05T01:00:12.487Z,7.80
2022-10-05T01:02:55.482Z,7.83
2022-10-05T01:05:34.836Z,7.67
2022-10-05T01:08:12.882Z,8.73
2022-10-05T01:10:48.679Z,9.30
2022-10-05T01:13:25.646Z,8.37
2022-10-05T01:16:04.221Z,8.00
2022-10-05T01:18:40.653Z,7.10
2022-10-05T01:21:16.767Z,8.67
2022-10-05T01:24:15.192Z,8.93
2022-10-05T01:27:08.916Z,7.23
2022-10-05T01:29:44.188Z,8.57
2022-10-05T01:32:23.777Z,9.70
2022-10-05T01:35:01.032Z,8.20
2022-10-05T01:37:43.224Z,7.90
2022-10-05T01:40:19.804Z,8.10
2022-10-05T01:43:00.277Z,7.53
2022-10-05T01:45:40.625Z,8.10
2022-10-05T01:48:16.345Z,9.07
2022-10-05T01:50:53.959Z,9.60
2022-10-05T01:53:36.465Z,10.00
2022-10-05T01:56:15.788Z,8.40
2022-10-05T01:58:52.593Z,8.30
2022-10-05T02:01:34.555Z,8.70
2022-10-05T02:04:08.484Z,10.23
2022-10-05T02:06:41.648Z,10.03
2022-10-05T02:09:15.572Z,11.30
2022-10-05T02:11:48.494Z,11.50
2022-10-05T02:14:22.549Z,10.90
2022-10-05T02:16:55.708Z,9.93
2022-10-05T02:19:28.624Z,10.00
2022-10-05T02:22:03.200Z,8.87
2022-10-05T02:24:38.865Z,9.90
2022-10-05T02:27:10.492Z,8.03
2022-10-05T02:29:46.724Z,8.93
2022-10-05T02:32:22.786Z,8.40
2022-10-05T02:34:51.560Z,8.17
2022-10-05T02:37:37.855Z,8.73
2022-10-05T02:40:18.693Z,8.33
2022-10-05T02:42:57.556Z,9.10
2022-10-05T02:45:37.334Z,8.60
2022-10-05T02:48:13.332Z,9.40
2022-10-05T02:50:50.630Z,9.97
2022-10-05T02:53:26.117Z,9.60
2022-10-05T02:56:04.197Z,9.17
2022-10-05T02:58:40.140Z,10.70
2022-10-05T03:01:18.177Z,11.40
2022-10-05T03:03:57.276Z,11.57
2022-10-05T03:06:31.918Z,12.30
2022-10-05T03:09:04.181Z,11.30
2022-10-05T03:11:42.802Z,10.60
2022-10-05T03:14:18.412Z,9.93
2022-10-05T03:16:56.798Z,11.20
2022-10-05T03:19:48.367Z,10.27
2022-10-05T03:22:29.809Z,10.73
2022-10-05T03:25:19.238Z,11.03
2022-10-05T03:27:53.374Z,9.80
2022-10-05T03:30:26.589Z,9.97
2022-10-05T03:33:04.112Z,10.40
2022-10-05T03:35:42.577Z,11.17
2022-10-05T03:38:19.115Z,12.53
2022-10-05T03:40:55.847Z,12.07
2022-10-05T03:43:41.672Z,11.87
2022-10-05T03:46:17.027Z,13.47
2022-10-05T03:48:53.753Z,13.07
2022-10-05T03:51:35.343Z,13.63
2022-10-05T03:54:12.718Z,14.17
2022-10-05T03:56:46.658Z,15.30
2022-10-05T03:59:20.701Z,14.27
2022-10-05T04:01:54.962Z,15.30
2022-10-05T04:04:29.339Z,16.60
2022-10-05T04:07:01.212Z,15.50
2022-10-05T04:09:35.163Z,16.47
2022-10-05T04:12:10.835Z,15.57
2022-10-05T04:14:42.581Z,16.93
2022-10-05T04:17:14.943Z,15.70
2022-10-05T04:19:47.358Z,14.80
2022-10-05T04:22:23.068Z,14.83
2022-10-05T04:24:56.083Z,15.57
2022-10-05T04:27:30.453Z,14.30
2022-10-05T04:30:05.242Z,14.50
2022-10-05T04:32:39.959Z,14.47
2022-10-05T04:35:24.775Z,13.60
2022-10-05T04:38:02.779Z,13.80
2022-10-05T04:40:41.879Z,14.47
2022-10-05T04:43:16.475Z,14.17
2022-10-05T04:46:17.220Z,13.73
2022-10-05T04:49:25.803Z,14.07
2022-10-05T04:52:02.131Z,15.17
2022-10-05T04:54:45.519Z,14.00
2022-10-05T04:57:20.628Z,15.53
2022-10-05T05:00:16.950Z,15.43
2022-10-05T05:03:04.719Z,15.73
2022-10-05T05:06:05.037Z,17.30
2022-10-05T05:08:48.992Z,16.00
2022-10-05T05:11:30.043Z,15.70
2022-10-05T05:14:33.245Z,14.83
2022-10-05T05:17:16.688Z,16.33
2022-10-05T05:19:54.759Z,15.33
2022-10-05T05:22:30.945Z,15.87
2022-10-05T05:25:18.312Z,15.80
2022-10-05T05:27:54.910Z,14.40
2022-10-05T05:30:31.469Z,16.17
2022-10-05T05:33:12.277Z,14.40
2022-10-05T05:36:05.921Z,15.60
2022-10-05T05:38:39.984Z,15.33
2022-10-05T05:41:12.200Z,15.27
2022-10-05T05:43:55.564Z,15.97
2022-10-05T05:46:51.236Z,15.33
2022-10-05T05:49:21.932Z,16.57
2022-10-05T05:51:56.733Z,17.70
2022-10-05T05:54:31.343Z,17.30
2022-10-05T05:57:09.087Z,17.40
2022-10-05T05:59:52.997Z,16.83
2022-10-05T06:02:27.588Z,16.40
2022-10-05T06:05:02.187Z,16.83
2022-10-05T06:07:32.608Z,15.10
2022-10-05T06:10:26.447Z,13.67
2022-10-05T06:13:20.756Z,14.23
2022-10-05T06:15:55.846Z,12.80
2022-10-05T06:18:25.484Z,13.60
2022-10-05T06:21:00.675Z,14.10
2022-10-05T06:23:36.666Z,12.13
2022-10-05T06:26:17.524Z,11.30
2022-10-05T06:28:52.238Z,9.77
2022-10-05T06:31:36.514Z,10.27
2022-10-05T06:34:23.757Z,8.70
2022-10-05T06:36:56.039Z,8.87
2022-10-05T06:39:46.797Z,8.60
2022-10-05T06:42:27.987Z,8.70
2022-10-05T06:45:30.440Z,8.70
2022-10-05T06:48:21.193Z,8.37
2022-10-05T06:51:16.958Z,9.03
2022-10-05T06:54:06.708Z,8.60
2022-10-05T06:56:40.996Z,8.23
2022-10-05T06:59:15.385Z,7.77
2022-10-05T07:01:54.425Z,8.10
2022-10-05T07:04:45.466Z,8.50
2022-10-05T07:07:23.369Z,8.17
2022-10-05T07:10:05.609Z,8.13
2022-10-05T07:12:54.198Z,9.23
2022-10-05T07:15:42.601Z,10.20
2022-10-05T07:18:32.107Z,8.30
2022-10-05T07:21:10.461Z,10.00
2022-10-05T07:24:05.792Z,10.33
2022-10-05T07:26:40.733Z,10.47
2022-10-05T07:29:22.151Z,10.50
2022-10-05T07:31:58.899Z,10.87
2022-10-05T07:34:37.538Z,10.77
2022-10-05T07:37:28.311Z,10.53
2022-10-05T07:40:05.229Z,10.20
2022-10-05T07:42:51.745Z,9.50
2022-10-05T07:45:29.989Z,8.53
2022-10-05T07:48:06.886Z,9.50
2022-10-05T07:50:39.823Z,8.87
2022-10-05T07:53:17.635Z,7.73
2022-10-05T07:55:51.194Z,9.00
2022-10-05T07:58:27.597Z,8.93
2022-10-05T08:01:05.577Z,8.60
2022-10-05T08:03:49.408Z,9.00
2022-10-05T08:06:42.003Z,8.37
2022-10-05T08:09:23.749Z,8.50
2022-10-05T08:11:58.712Z,8.50
2022-10-05T08:14:33.693Z,8.90
2022-10-05T08:17:07.240Z,8.27
2022-10-05T08:20:03.233Z,8.23
2022-10-05T08:22:36.114Z,8.97
2022-10-05T08:25:10.953Z,8.40
2022-10-05T08:27:47.304Z,8.13
2022-10-05T08:30:17.300Z,9.70
2022-10-05T08:32:51.765Z,10.33
2022-10-05T08:35:28.884Z,10.10
2022-10-05T08:37:58.045Z,10.80
2022-10-05T08:41:07.156Z,12.40
2022-10-05T08:44:10.793Z,12.47
2022-10-05T08:47:13.649Z,12.63
2022-10-05T08:50:12.661Z,13.50
2022-10-05T08:53:06.722Z,15.23
2022-10-05T08:55:44.632Z,17.07
2022-10-05T08:58:47.027Z,18.00
2022-10-05T09:01:23.890Z,15.53
2022-10-05T09:04:40.163Z,17.30
2022-10-05T09:07:29.664Z,17.10
2022-10-05T09:10:32.449Z,16.63
2022-10-05T09:13:46.393Z,15.57
2022-10-05T09:16:39.324Z,20.60
2022-10-05T09:19:45.356Z,19.57
2022-10-05T09:22:17.018Z,21.80
2022-10-05T09:24:56.453Z,19.43
2022-10-05T09:27:37.336Z,18.93
2022-10-05T09:30:22.616Z,16.87
2022-10-05T09:33:16.992Z,21.73
2022-10-05T09:36:39.294Z,22.07
2022-10-05T09:39:36.527Z,23.50
2022-10-05T09:42:39.669Z,17.20
2022-10-05T09:45:37.508Z,16.57
2022-10-05T09:48:39.959Z,21.63
2022-10-05T09:51:43.831Z,23.13
2022-10-05T09:55:01.273Z,21.43
2022-10-05T09:57:54.834Z,19.13
2022-10-05T10:00:31.017Z,18.07
2022-10-05T10:03:23.256Z,15.50
2022-10-05T10:06:30.561Z,18.70
2022-10-05T10:09:37.891Z,17.60
2022-10-05T10:12:29.409Z,17.83
2022-10-05T10:15:34.347Z,15.50
2022-10-05T10:18:30.725Z,13.80
2022-10-05T10:21:29.411Z,12.40
2022-10-05T10:24:28.726Z,11.60
2022-10-05T10:27:12.223Z,11.37
2022-10-05T10:30:10.259Z,11.30
2022-10-05T10:33:11.343Z,12.03
2022-10-05T10:35:45.951Z,10.43
2022-10-05T10:38:36.343Z,10.70
2022-10-05T10:41:40.263Z,10.60
2022-10-05T10:44:47.025Z,10.43
2022-10-05T10:47:40.137Z,8.97
2022-10-05T10:50:50.515Z,8.13
2022-10-05T10:53:51.084Z,8.00
2022-10-05T10:56:44.513Z,8.47
2022-10-05T10:59:57.880Z,7.37
2022-10-05T11:03:10.349Z,7.60
2022-10-05T11:06:17.272Z,7.40
2022-10-05T11:09:15.360Z,7.37
2022-10-05T11:12:17.834Z,8.03
2022-10-05T11:15:12.171Z,7.07
2022-10-05T11:18:00.806Z,7.43
2022-10-05T11:20:58.812Z,8.00
2022-10-05T11:23:57.982Z,7.67
2022-10-05T11:26:41.149Z,7.73
2022-10-05T11:29:30.312Z,7.53
2022-10-05T11:32:35.230Z,7.00
2022-10-05T11:35:29.465Z,7.07
2022-10-05T11:38:30.281Z,7.80
2022-10-05T11:41:33.823Z,7.03
2022-10-05T11:44:32.044Z,7.00
2022-10-05T11:47:05.070Z,7.50
2022-10-05T11:49:41.278Z,7.33
2022-10-05T11:52:20.312Z,6.80
2022-10-05T11:55:19.295Z,7.10
2022-10-05T11:57:52.967Z,7.03
2022-10-05T12:00:23.488Z,7.00
2022-10-05T12:03:31.721Z,6.87
2022-10-05T12:06:21.959Z,7.20
2022-10-05T12:09:03.771Z,7.60
2022-10-05T12:11:57.737Z,7.50
2022-10-05T12:14:38.505Z,6.60
2022-10-05T12:17:18.516Z,8.23
2022-10-05T12:19:49.985Z,8.00
2022-10-05T12:22:23.006Z,7.60
2022-10-05T12:25:07.330Z,7.00
2022-10-05T12:27:40.392Z,6.00
2022-10-05T12:30:18.718Z,7.20
2022-10-05T12:33:00.924Z,7.10
2022-10-05T12:35:48.000Z,8.20
2022-10-05T12:38:27.048Z,7.20
2022-10-05T12:41:05.188Z,6.73
2022-10-05T12:43:42.676Z,8.23
2022-10-05T12:46:23.258Z,7.93
2022-10-05T12:49:28.117Z,7.53
2022-10-05T12:51:59.416Z,7.50
2022-10-05T12:54:37.468Z,6.73
2022-10-05T12:57:14.034Z,7.40
2022-10-05T12:59:48.752Z,5.70
2022-10-05T13:02:27.195Z,6.43
2022-10-05T13:05:04.299Z,7.13
2022-10-05T13:07:48.008Z,6.93
2022-10-05T13:10:31.836Z,6.70
2022-10-05T13:13:13.579Z,6.40
2022-10-05T13:15:49.281Z,6.03
2022-10-05T13:18:27.271Z,7.13
2022-10-05T13:21:04.488Z,6.37
2022-10-05T13:23:43.637Z,5.53
2022-10-05T13:26:15.754Z,6.40
2022-10-05T13:28:52.827Z,5.77
2022-10-05T13:31:25.520Z,5.33
2022-10-05T13:34:12.745Z,6.00
2022-10-05T13:36:51.639Z,6.97
2022-10-05T13:39:31.696Z,6.63
2022-10-05T13:42:06.114Z,5.07
2022-10-05T13:44:39.860Z,5.80
2022-10-05T13:47:16.785Z,5.50
2022-10-05T13:49:55.178Z,5.43
2022-10-05T13:52:43.526Z,6.50
2022-10-05T13:55:22.192Z,5.60
2022-10-05T13:58:02.515Z,6.20
2022-10-05T14:00:31.546Z,5.60
2022-10-05T14:03:02.014Z,5.47
2022-10-05T14:05:32.935Z,6.57
2022-10-05T14:08:18.259Z,5.77
2022-10-05T14:10:48.324Z,5.57
2022-10-05T14:13:23.570Z,5.03
2022-10-05T14:16:21.258Z,5.93
2022-10-05T14:18:56.174Z,5.23
2022-10-05T14:21:27.603Z,5.67
2022-10-05T14:23:58.779Z,5.07
2022-10-05T14:26:38.551Z,5.60
2022-10-05T14:29:19.520Z,5.00
2022-10-05T14:31:52.378Z,4.77
2022-10-05T14:34:31.239Z,5.30
2022-10-05T14:37:09.999Z,5.40
2022-10-05T14:39:43.722Z,4.27
2022-10-05T14:42:18.112Z,4.33
2022-10-05T14:44:57.838Z,4.37
2022-10-05T14:47:30.356Z,5.50
2022-10-05T14:50:14.044Z,4.37
2022-10-05T14:52:51.725Z,4.67
2022-10-05T14:55:42.694Z,4.07
2022-10-05T14:58:35.070Z,4.70
2022-10-05T15:01:13.698Z,4.73
2022-10-05T15:03:52.175Z,4.63
2022-10-05T15:06:28.161Z,4.80
2022-10-05T15:09:20.076Z,4.80
2022-10-05T15:11:52.393Z,4.63
2022-10-05T15:14:24.964Z,5.00
2022-10-05T15:16:55.653Z,4.40
2022-10-05T15:19:28.564Z,4.73
2022-10-05T15:22:24.663Z,4.70
2022-10-05T15:25:03.588Z,5.03
2022-10-05T15:27:44.016Z,4.73
2022-10-05T15:30:17.904Z,4.43
2022-10-05T15:33:08.971Z,4.67
2022-10-05T15:35:55.363Z,3.70
2022-10-05T15:38:26.565Z,4.57
2022-10-05T15:41:09.341Z,4.07
2022-10-05T15:43:48.711Z,4.10
2022-10-05T15:46:23.414Z,4.03
2022-10-05T15:49:08.529Z,4.20
2022-10-05T15:51:50.219Z,3.90
2022-10-05T15:54:43.961Z,3.80
2022-10-05T15:57:31.178Z,4.20
2022-10-05T16:00:04.346Z,3.67
2022-10-05T16:02:40.992Z,4.30
2022-10-05T16:05:45.877Z,3.63
2022-10-05T16:08:40.496Z,4.20
2022-10-05T16:11:16.987Z,4.53
2022-10-05T16:13:55.521Z,3.77
2022-10-05T16:16:30.080Z,4.10
2022-10-05T16:19:05.219Z,3.70
2022-10-05T16:21:44.182Z,4.37
2022-10-05T16:24:24.356Z,4.30
2022-10-05T16:27:00.693Z,3.90
2022-10-05T16:29:40.406Z,4.30
2022-10-05T16:32:14.879Z,3.77
2022-10-05T16:35:00.747Z,4.40
2022-10-05T16:37:39.146Z,4.20
2022-10-05T16:40:15.983Z,4.70
2022-10-05T16:42:54.374Z,4.30
2022-10-05T16:45:44.807Z,4.53
2022-10-05T16:48:19.765Z,4.70
2022-10-05T16:50:57.444Z,4.20
2022-10-05T16:53:31.713Z,4.03
2022-10-05T16:56:04.777Z,4.23
2022-10-05T16:58:45.453Z,3.80
2022-10-05T17:01:27.407Z,4.03
2022-10-05T17:04:12.164Z,3.83
2022-10-05T17:07:17.880Z,3.60
2022-10-05T17:10:13.324Z,4.57
2022-10-05T17:12:56.227Z,4.07
2022-10-05T17:15:41.006Z,4.13
2022-10-05T17:18:24.910Z,3.97
2022-10-05T17:21:02.518Z,4.00
2022-10-05T17:23:51.660Z,4.13
2022-10-05T17:26:38.727Z,4.50
2022-10-05T17:29:15.229Z,4.23
2022-10-05T17:32:03.140Z,5.17
2022-10-05T17:34:34.771Z,4.70
2022-10-05T17:37:19.196Z,5.70
2022-10-05T17:39:50.433Z,4.70
2022-10-05T17:42:47.336Z,4.63
2022-10-05T17:45:52.720Z,5.17
2022-10-05T17:49:04.092Z,7.20
2022-10-05T17:52:19.295Z,6.00
2022-10-05T17:55:30.588Z,7.13
2022-10-05T17:58:02.064Z,6.83
2022-10-05T18:00:42.114Z,8.40
2022-10-05T18:03:37.381Z,8.80
2022-10-05T18:06:33.306Z,8.00
2022-10-05T18:09:33.076Z,8.93
2022-10-05T18:12:39.862Z,7.27
2022-10-05T18:15:44.127Z,7.80
2022-10-05T18:18:54.702Z,8.33
2022-10-05T18:21:35.698Z,9.23
2022-10-05T18:24:31.437Z,7.37
2022-10-05T18:27:16.313Z,7.27
2022-10-05T18:30:05.559Z,6.73
2022-10-05T18:32:48.053Z,7.33
2022-10-05T18:35:21.006Z,7.70
2022-10-05T18:38:03.087Z,7.93
2022-10-05T18:40:43.333Z,7.90
2022-10-05T18:43:29.087Z,7.63
2022-10-05T18:46:12.775Z,8.27
2022-10-05T18:48:50.202Z,7.53
2022-10-05T18:51:24.471Z,7.60
2022-10-05T18:54:13.017Z,7.70
2022-10-05T18:56:47.420Z,7.20
2022-10-05T18:59:36.429Z,7.50
2022-10-05T19:02:19.947Z,6.97
2022-10-05T19:05:02.791Z,7.30
2022-10-05T19:07:44.115Z,7.50
2022-10-05T19:10:23.071Z,6.57
2022-10-05T19:13:05.013Z,6.87
2022-10-05T19:15:46.300Z,7.53
2022-10-05T19:18:33.053Z,6.90
2022-10-05T19:21:12.132Z,7.40
2022-10-05T19:23:56.443Z,7.30
2022-10-05T19:26:42.614Z,6.20
2022-10-05T19:29:23.034Z,6.90
2022-10-05T19:32:00.868Z,6.90
2022-10-05T19:34:44.846Z,7.93
2022-10-05T19:37:18.843Z,5.97
2022-10-05T19:39:55.265Z,6.70
2022-10-05T19:42:50.137Z,6.00
2022-10-05T19:45:23.721Z,6.70
2022-10-05T19:48:12.845Z,6.50
2022-10-05T19:50:52.892Z,6.40
2022-10-05T19:53:28.250Z,6.10
2022-10-05T19:55:57.435Z,6.17
2022-10-05T19:58:28.311Z,7.77
2022-10-05T20:00:59.510Z,6.10
2022-10-05T20:03:31.694Z,7.57
2022-10-05T20:06:02.281Z,7.90
2022-10-05T20:08:40.391Z,7.73
2022-10-05T20:11:13.150Z,6.77
2022-10-05T20:13:43.330Z,6.90
2022-10-05T20:16:38.536Z,6.83
2022-10-05T20:19:48.308Z,7.00
2022-10-05T20:22:32.920Z,5.90
2022-10-05T20:25:03.887Z,7.00
2022-10-05T20:27:47.154Z,6.37
2022-10-05T20:30:18.388Z,6.27
2022-10-05T20:32:49.418Z,7.03
2022-10-05T20:35:21.840Z,6.63
2022-10-05T20:37:51.004Z,7.17
2022-10-05T20:40:20.393Z,6.80
2022-10-05T20:42:49.054Z,7.23
2022-10-05T20:45:17.314Z,6.80
2022-10-05T20:47:46.630Z,6.50
2022-10-05T20:50:15.800Z,6.60
2022-10-05T20:52:45.906Z,6.40
2022-10-05T20:55:14.233Z,6.80
2022-10-05T20:57:42.678Z,7.27
2022-10-05T21:00:12.836Z,7.17
2022-10-05T21:02:41.162Z,6.90
2022-10-05T21:05:10.627Z,7.00
2022-10-05T21:07:39.639Z,6.97
2022-10-05T21:10:10.137Z,7.57
2022-10-05T21:12:38.579Z,7.27
2022-10-05T21:15:07.813Z,7.70
2022-10-05T21:17:39.156Z,8.30
2022-10-05T21:20:11.570Z,7.50
2022-10-05T21:22:39.961Z,7.10
2022-10-05T21:25:10.360Z,7.30
2022-10-05T21:27:38.803Z,6.80
2022-10-05T21:30:08.233Z,7.07
2022-10-05T21:32:40.578Z,7.13
2022-10-05T21:35:11.640Z,7.37
2022-10-05T21:37:39.941Z,7.80
2022-10-05T21:40:10.622Z,7.50
2022-10-05T21:42:39.141Z,8.93
2022-10-05T21:45:08.616Z,7.10
2022-10-05T21:47:37.209Z,7.40
2022-10-05T21:50:08.009Z,6.80
2022-10-05T21:52:37.162Z,7.10
2022-10-05T21:55:07.073Z,7.20
2022-10-05T21:57:37.468Z,7.23
2022-10-05T22:00:08.980Z,6.27
2022-10-05T22:02:37.729Z,7.00
2022-10-05T22:05:06.535Z,6.30
2022-10-05T22:07:35.093Z,7.10
2022-10-05T22:10:05.728Z,7.67
2022-10-05T22:12:35.853Z,7.33
2022-10-05T22:15:04.933Z,8.00
2022-10-05T22:17:33.458Z,8.70
2022-10-05T22:20:02.744Z,8.07
2022-10-05T22:22:33.190Z,8.30
2022-10-05T22:25:01.503Z,8.83
2022-10-05T22:27:31.716Z,7.83
2022-10-05T22:30:03.114Z,7.73
2022-10-05T22:32:31.682Z,7.00
2022-10-05T22:34:59.991Z,6.87
2022-10-05T22:37:28.430Z,7.20
2022-10-05T22:39:56.742Z,7.50
2022-10-05T22:42:25.026Z,8.43
2022-10-05T22:44:53.359Z,8.43
2022-10-05T22:47:22.964Z,8.10
2022-10-05T22:49:51.524Z,7.63
2022-10-05T22:52:19.812Z,7.97
2022-10-05T22:54:48.082Z,7.60
2022-10-05T22:57:16.378Z,7.00
2022-10-05T22:59:44.860Z,7.63
2022-10-05T23:02:14.145Z,7.80
2022-10-05T23:04:43.929Z,7.20
2022-10-05T23:07:12.265Z,7.73
2022-10-05T23:09:40.636Z,7.73
2022-10-05T23:12:08.896Z,7.50
2022-10-05T23:14:37.189Z,6.70
2022-10-05T23:17:06.041Z,7.00
2022-10-05T23:19:34.376Z,7.50
2022-10-05T23:22:04.065Z,7.60
2022-10-05T23:24:32.463Z,7.00
2022-10-05T23:27:00.863Z,7.57
2022-10-05T23:29:29.560Z,7.67
2022-10-05T23:31:57.920Z,7.87
2022-10-05T23:34:27.340Z,7.57
2022-10-05T23:36:55.712Z,8.03
2022-10-05T23:39:25.395Z,9.00
2022-10-05T23:41:53.775Z,7.23
2022-10-05T23:44:23.063Z,7.47
2022-10-05T23:46:51.383Z,7.90
2022-10-05T23:49:19.830Z,7.57
2022-10-05T23:51:48.168Z,7.40
2022-10-05T23:54:16.464Z,7.30
2022-10-05T23:56:46.132Z,7.93
2022-10-05T23:59:14.389Z,7.60
